Time;durP1;ratioP1;P1;durP2;ratioP2;P2;SDS_P1;SDS_P2;PMS_P1;PMS_P2;Temp;Humidity;BMP_temperature;BMP_pressure;BME280_temperature;BME280_humidity;BME280_pressure;Samples;Min_cycle;Max_cycle;Signal;HPM_P1;HPM_P2
2023/02/07 00:00:23;;;;;;;8.43;5.97;;;;;;;-0.34;99.08;100033.44;5013169;28;20233;-81
2023/02/07 00:02:50;;;;;;;8.57;6.57;;;;;;;-0.39;99.78;100042.97;5013461;28;20628;-82
2023/02/07 00:05:18;;;;;;;9.90;6.47;;;;;;;-0.43;100.00;100054.19;5013250;28;20275;-81
2023/02/07 00:07:45;;;;;;;8.50;6.00;;;;;;;-0.54;100.00;100050.69;5013213;28;20209;-81
2023/02/07 00:10:11;;;;;;;8.73;6.47;;;;;;;-0.61;100.00;100054.09;5013124;28;20235;-81
2023/02/07 00:12:38;;;;;;;9.83;6.50;;;;;;;-0.63;100.00;100056.69;5013062;28;20216;-82
2023/02/07 00:15:05;;;;;;;9.00;6.63;;;;;;;-0.70;100.00;100064.44;5013081;28;20240;-81
2023/02/07 00:17:32;;;;;;;8.37;6.37;;;;;;;-0.70;100.00;100054.03;5013097;28;20213;-81
2023/02/07 00:19:59;;;;;;;11.10;7.37;;;;;;;-0.73;100.00;100054.03;5012663;28;20208;-82
2023/02/07 00:22:27;;;;;;;9.50;6.30;;;;;;;-0.73;100.00;100048.84;5013267;28;20215;-81
2023/02/07 00:24:53;;;;;;;12.03;6.70;;;;;;;-0.79;100.00;100051.41;5013298;28;20233;-81
2023/02/07 00:27:20;;;;;;;10.50;7.17;;;;;;;-0.82;100.00;100048.78;5013147;28;20213;-80
2023/02/07 00:29:46;;;;;;;8.43;6.80;;;;;;;-0.83;100.00;100052.25;5012668;28;20237;-81
2023/02/07 00:32:13;;;;;;;9.33;6.27;;;;;;;-0.94;100.00;100052.16;5013129;28;20213;-82
2023/02/07 00:34:39;;;;;;;9.77;6.73;;;;;;;-1.03;100.00;100059.03;5012716;28;20719;-82
2023/02/07 00:37:06;;;;;;;11.33;6.53;;;;;;;-1.06;100.00;100053.84;5012929;28;20217;-82
2023/02/07 00:39:34;;;;;;;12.03;7.33;;;;;;;-1.08;100.00;100051.22;5012436;28;20231;-81
2023/02/07 00:42:01;;;;;;;12.03;7.20;;;;;;;-1.16;100.00;100057.22;5012908;28;20214;-82
2023/02/07 00:44:27;;;;;;;10.93;7.33;;;;;;;-1.19;100.00;100067.53;5012707;28;20253;-82
2023/02/07 00:46:54;;;;;;;11.20;6.90;;;;;;;-1.25;100.00;100057.13;5012733;28;20206;-81
2023/02/07 00:49:21;;;;;;;12.33;7.40;;;;;;;-1.28;100.00;100067.50;5012399;28;20237;-81
2023/02/07 00:51:48;;;;;;;12.40;7.83;;;;;;;-1.27;100.00;100069.22;5012437;28;20213;-81
2023/02/07 00:54:14;;;;;;;12.30;8.37;;;;;;;-1.26;100.00;100066.66;5012524;28;20714;-82
2023/02/07 00:56:42;;;;;;;12.20;7.90;;;;;;;-1.25;100.00;100054.53;5012795;28;20248;-82
2023/02/07 00:59:09;;;;;;;12.87;8.37;;;;;;;-1.28;100.00;100044.13;5012267;28;20221;-82
2023/02/07 01:01:36;;;;;;;12.20;8.37;;;;;;;-1.25;100.00;100042.44;5012431;28;20221;-82
2023/02/07 01:04:03;;;;;;;12.10;7.73;;;;;;;-1.24;100.00;100043.31;5012521;28;20237;-82
2023/02/07 01:06:32;;;;;;;13.27;7.77;;;;;;;-1.26;100.00;100034.63;5012971;28;20216;-82
2023/02/07 01:09:00;;;;;;;13.83;9.10;;;;;;;-1.31;100.00;100041.50;5012653;28;20233;-82
2023/02/07 01:11:27;;;;;;;12.37;8.60;;;;;;;-1.37;100.00;100044.06;5012687;28;20683;-83
2023/02/07 01:13:56;;;;;;;11.37;8.53;;;;;;;-1.44;100.00;100048.34;5012536;28;20226;-81
2023/02/07 01:16:25;;;;;;;13.83;9.00;;;;;;;-1.55;100.00;100056.84;5012556;28;20213;-81
2023/02/07 01:18:52;;;;;;;12.53;9.60;;;;;;;-1.65;100.00;100060.25;5012679;28;20212;-82
2023/02/07 01:21:20;;;;;;;13.40;8.80;;;;;;;-1.71;100.00;100073.13;5012777;28;20216;-82
2023/02/07 01:23:47;;;;;;;14.73;9.47;;;;;;;-1.72;100.00;100079.19;5014548;28;20247;-83
2023/02/07 01:26:14;;;;;;;13.97;9.47;;;;;;;-1.74;100.00;100065.31;5013883;28;20205;-81
2023/02/07 01:28:41;;;;;;;15.27;9.60;;;;;;;-1.72;100.00;100084.38;5011881;28;20260;-82
2023/02/07 01:31:10;;;;;;;17.37;9.80;;;;;;;-1.64;100.00;100080.13;5011978;28;20211;-82
2023/02/07 01:33:37;;;;;;;14.00;9.40;;;;;;;-1.56;100.00;100081.06;5012096;28;20241;-81
2023/02/07 01:36:08;;;;;;;16.97;10.70;;;;;;;-1.54;100.00;100079.38;5011953;28;20227;-81
2023/02/07 01:38:34;;;;;;;17.77;10.73;;;;;;;-1.55;100.00;100087.97;5012068;28;20212;-81
2023/02/07 01:41:01;;;;;;;16.63;10.70;;;;;;;-1.57;100.00;100097.47;5011803;28;20314;-82
2023/02/07 01:43:28;;;;;;;14.53;10.77;;;;;;;-1.65;100.00;100096.53;5011712;28;20239;-81
2023/02/07 01:45:55;;;;;;;15.33;10.47;;;;;;;-1.71;100.00;100091.28;5012045;28;20212;-83
2023/02/07 01:48:26;;;;;;;16.03;11.03;;;;;;;-1.70;100.00;100087.84;5011940;28;20587;-81
2023/02/07 01:50:56;;;;;;;17.40;11.00;;;;;;;-1.73;100.00;100082.63;5011596;28;20240;-82
2023/02/07 01:53:25;;;;;;;17.80;11.60;;;;;;;-1.72;100.00;100079.19;5011602;28;20229;-81
2023/02/07 01:55:56;;;;;;;17.17;10.47;;;;;;;-1.75;100.00;100071.34;5011571;28;20216;-82
2023/02/07 01:58:24;;;;;;;17.57;11.10;;;;;;;-1.74;100.00;100073.97;5011606;28;20220;-82
2023/02/07 02:00:51;;;;;;;19.20;10.70;;;;;;;-1.76;100.00;100078.28;5010190;28;20213;-81
2023/02/07 02:03:17;;;;;;;15.57;10.73;;;;;;;-1.79;100.00;100067.03;5011332;28;20241;-81
2023/02/07 02:05:47;;;;;;;16.47;10.20;;;;;;;-1.86;100.00;100070.38;5012637;28;20215;-81
2023/02/07 02:08:13;;;;;;;16.73;11.60;;;;;;;-1.85;100.00;100075.59;5015477;28;20222;-81
2023/02/07 02:10:54;;;;;;;15.33;10.80;;;;;;;-1.84;100.00;100074.72;5015575;28;20236;-81
2023/02/07 02:13:28;;;;;;;15.90;10.33;;;;;;;-1.89;100.00;100065.19;5015522;28;20236;-81
2023/02/07 02:16:03;;;;;;;14.40;10.37;;;;;;;-1.90;100.00;100066.03;5015619;28;20212;-81
2023/02/07 02:18:51;;;;;;;15.27;10.13;;;;;;;-1.99;100.00;100058.16;5015642;28;20218;-80
2023/02/07 02:21:58;;;;;;;16.40;10.87;;;;;;;-1.91;100.00;100056.53;5015811;28;20221;-80
2023/02/07 02:24:48;;;;;;;14.67;10.27;;;;;;;-1.89;100.00;100039.25;5015336;28;20232;-81
2023/02/07 02:27:26;;;;;;;14.50;10.53;;;;;;;-1.85;100.00;100038.44;5015214;28;20214;-82
2023/02/07 02:30:33;;;;;;;17.23;10.80;;;;;;;-1.90;100.00;100037.53;5015044;28;20230;-80
2023/02/07 02:33:20;;;;;;;16.17;11.20;;;;;;;-1.93;100.00;100047.84;5015153;28;20211;-80
2023/02/07 02:35:55;;;;;;;17.40;10.73;;;;;;;-1.98;100.00;100037.44;5015462;28;20198;-81
2023/02/07 02:38:26;;;;;;;15.93;11.27;;;;;;;-2.00;100.00;100051.22;5015126;28;20238;-81
2023/02/07 02:40:59;;;;;;;18.13;11.07;;;;;;;-2.04;100.00;100046.84;5014889;28;20638;-80
2023/02/07 02:43:31;;;;;;;17.07;11.63;;;;;;;-2.06;100.00;100051.16;5014980;28;20597;-81
2023/02/07 02:46:01;;;;;;;18.83;12.50;;;;;;;-2.07;100.00;100039.94;5014902;28;20212;-80
2023/02/07 02:48:31;;;;;;;22.67;13.33;;;;;;;-2.08;100.00;100042.50;5015251;28;20220;-81
2023/02/07 02:50:58;;;;;;;17.63;12.50;;;;;;;-2.11;100.00;100051.13;5014556;28;20234;-80
2023/02/07 02:53:24;;;;;;;18.63;13.53;;;;;;;-2.14;100.00;100058.84;5014920;28;20232;-81
2023/02/07 02:56:21;;;;;;;18.50;13.30;;;;;;;-2.19;100.00;100064.84;5014749;28;20210;-81
2023/02/07 02:59:07;;;;;;;17.97;12.27;;;;;;;-2.22;100.00;100064.78;5014744;28;20222;-81
2023/02/07 03:01:48;;;;;;;18.93;12.37;;;;;;;-2.29;100.00;100074.22;5014960;28;20213;-81
2023/02/07 03:04:31;;;;;;;18.27;12.40;;;;;;;-2.29;100.00;100069.03;5014423;28;20245;-81
2023/02/07 03:07:10;;;;;;;18.80;12.27;;;;;;;-2.33;100.00;100076.75;5014742;28;20208;-80
2023/02/07 03:09:48;;;;;;;20.70;12.90;;;;;;;-2.38;100.00;100079.25;5014176;28;20237;-80
2023/02/07 03:12:20;;;;;;;21.90;13.70;;;;;;;-2.42;100.00;100085.28;5014471;28;20560;-81
2023/02/07 03:14:57;;;;;;;19.60;13.13;;;;;;;-2.46;100.00;100098.16;5014275;28;20253;-81
2023/02/07 03:17:30;;;;;;;21.00;13.97;;;;;;;-2.50;100.00;100089.47;5014048;28;20222;-80
2023/02/07 03:20:04;;;;;;;20.07;13.73;;;;;;;-2.53;100.00;100096.31;5014048;28;20212;-81
2023/02/07 03:22:32;;;;;;;20.20;14.20;;;;;;;-2.57;100.00;100097.16;5014230;28;20211;-81
2023/02/07 03:25:01;;;;;;;17.87;12.20;;;;;;;-2.55;100.00;100100.63;5014070;28;20231;-80
2023/02/07 03:27:30;;;;;;;20.13;12.90;;;;;;;-2.58;100.00;100095.41;5013940;28;20217;-80
2023/02/07 03:30:00;;;;;;;20.37;12.93;;;;;;;-2.64;100.00;100103.09;5013880;28;20234;-81
2023/02/07 03:32:33;;;;;;;21.23;13.43;;;;;;;-2.70;100.00;100096.09;5013941;28;20219;-80
2023/02/07 03:35:06;;;;;;;20.27;13.90;;;;;;;-2.72;100.00;100107.25;5013888;28;20597;-80
2023/02/07 03:37:36;;;;;;;24.20;13.27;;;;;;;-2.86;100.00;100111.38;5013890;28;20318;-80
2023/02/07 03:40:04;;;;;;;19.40;13.00;;;;;;;-2.92;100.00;100108.69;5013537;28;20208;-80
2023/02/07 03:42:36;;;;;;;18.87;13.27;;;;;;;-2.86;100.00;100101.91;5013707;28;20212;-81
2023/02/07 03:45:05;;;;;;;18.60;13.50;;;;;;;-2.95;100.00;100109.53;5013818;28;20602;-80
2023/02/07 03:47:32;;;;;;;18.97;12.30;;;;;;;-3.01;100.00;100095.63;5013844;28;20216;-80
2023/02/07 03:49:58;;;;;;;18.23;12.70;;;;;;;-3.04;100.00;100108.50;5013230;28;20222;-80
2023/02/07 03:52:26;;;;;;;20.30;13.93;;;;;;;-3.01;100.00;100106.00;5013467;28;20679;-80
2023/02/07 03:54:53;;;;;;;19.33;12.80;;;;;;;-3.03;100.00;100107.66;5013523;28;20237;-80
2023/02/07 03:57:19;;;;;;;21.33;13.43;;;;;;;-3.07;100.00;100109.31;5013714;28;20536;-80
2023/02/07 03:59:46;;;;;;;18.97;12.17;;;;;;;-3.17;100.00;100112.59;5013418;28;20212;-80
2023/02/07 04:02:12;;;;;;;19.37;12.93;;;;;;;-3.28;100.00;100108.13;5013350;28;20216;-81
2023/02/07 04:04:39;;;;;;;18.70;13.07;;;;;;;-3.43;100.00;100105.28;5013397;28;20248;-80
2023/02/07 04:07:05;;;;;;;21.13;13.57;;;;;;;-3.50;100.00;100104.28;5013120;28;20217;-80
2023/02/07 04:09:33;;;;;;;20.10;13.40;;;;;;;-3.57;100.00;100086.94;5012749;28;20234;-80
2023/02/07 04:12:00;;;;;;;19.77;13.57;;;;;;;-3.60;100.00;100078.28;5013463;28;20216;-80
2023/02/07 04:14:26;;;;;;;19.67;13.03;;;;;;;-3.63;100.00;100078.19;5013064;28;20744;-81
2023/02/07 04:16:53;;;;;;;20.33;12.77;;;;;;;-3.65;100.00;100075.63;5012975;28;20210;-81
2023/02/07 04:19:19;;;;;;;21.10;13.10;;;;;;;-3.72;100.00;100083.22;5013382;28;20531;-82
2023/02/07 04:21:46;;;;;;;19.83;12.60;;;;;;;-3.73;100.00;100084.06;5013192;28;20217;-81
2023/02/07 04:24:13;;;;;;;21.33;12.83;;;;;;;-3.74;100.00;100090.09;5013432;28;20235;-81
2023/02/07 04:26:41;;;;;;;20.00;13.53;;;;;;;-3.66;100.00;100091.09;5013090;28;20211;-81
2023/02/07 04:29:07;;;;;;;21.00;12.93;;;;;;;-3.64;100.00;100089.38;5012485;28;20240;-81
2023/02/07 04:31:36;;;;;;;23.00;14.07;;;;;;;-3.54;100.00;100078.38;5013262;28;20252;-80
2023/02/07 04:34:02;;;;;;;19.27;13.27;;;;;;;-3.58;100.00;100086.91;5013280;28;20579;-81
2023/02/07 04:36:30;;;;;;;18.37;11.97;;;;;;;-3.68;100.00;100080.72;5013031;28;20231;-81
2023/02/07 04:38:56;;;;;;;20.43;13.33;;;;;;;-3.75;100.00;100080.56;5012670;28;20213;-80
2023/02/07 04:41:23;;;;;;;19.33;12.60;;;;;;;-3.80;100.00;100087.41;5013477;28;20206;-81
2023/02/07 04:43:51;;;;;;;22.23;14.20;;;;;;;-3.85;100.00;100091.59;5014591;28;20252;-82
2023/02/07 04:46:17;;;;;;;20.10;14.00;;;;;;;-3.76;100.00;100086.59;5013478;28;20227;-80
2023/02/07 04:48:44;;;;;;;21.07;13.43;;;;;;;-3.80;100.00;100084.81;5012425;28;20213;-81
2023/02/07 04:51:11;;;;;;;20.77;13.47;;;;;;;-3.79;100.00;100086.53;5012713;28;20234;-81
2023/02/07 04:53:37;;;;;;;22.97;14.20;;;;;;;-3.86;100.00;100090.72;5012390;28;20230;-81
2023/02/07 04:56:04;;;;;;;21.20;13.90;;;;;;;-3.91;100.00;100092.34;5012686;28;20206;-80
2023/02/07 04:58:31;;;;;;;18.20;13.23;;;;;;;-3.96;100.00;100082.78;5012457;28;20216;-81
2023/02/07 05:00:59;;;;;;;20.07;13.43;;;;;;;-3.98;100.00;100089.63;5011982;28;20213;-80
2023/02/07 05:03:25;;;;;;;21.10;13.37;;;;;;;-3.98;100.00;100099.97;5026302;23;20242;-76
2023/02/07 05:05:53;;;;;;;21.47;13.80;;;;;;;-4.02;100.00;100093.88;5012408;28;20234;-76
2023/02/07 05:08:20;;;;;;;22.83;14.83;;;;;;;-4.03;100.00;100088.66;5012356;28;20213;-76
2023/02/07 05:10:47;;;;;;;21.63;13.57;;;;;;;-4.04;100.00;100089.50;5012117;28;20234;-75
2023/02/07 05:13:13;;;;;;;25.80;15.00;;;;;;;-4.08;100.00;100090.28;5012153;28;20214;-75
2023/02/07 05:15:40;;;;;;;23.33;14.30;;;;;;;-4.11;100.00;100085.94;5012388;28;20213;-75
2023/02/07 05:18:08;;;;;;;23.37;13.67;;;;;;;-4.08;100.00;100088.59;5012177;28;20229;-75
2023/02/07 05:20:34;;;;;;;24.23;14.10;;;;;;;-4.11;100.00;100095.38;5011845;28;20214;-75
2023/02/07 05:23:01;;;;;;;22.70;14.90;;;;;;;-4.08;100.00;100087.72;5012260;28;20206;-76
2023/02/07 05:25:27;;;;;;;21.50;14.00;;;;;;;-4.05;100.00;100083.47;5012095;28;20236;-76
2023/02/07 05:27:54;;;;;;;21.53;13.47;;;;;;;-4.14;100.00;100087.59;5012107;28;20219;-76
2023/02/07 05:30:21;;;;;;;21.00;13.80;;;;;;;-4.22;100.00;100086.56;5011745;28;20608;-75
2023/02/07 05:33:05;;;;;;;22.87;14.30;;;;;;;-4.17;100.00;100069.47;5011991;28;20217;-76
2023/02/07 05:35:35;;;;;;;21.97;14.13;;;;;;;-4.17;100.00;100082.38;5012067;28;20286;-76
2023/02/07 05:38:03;;;;;;;22.07;14.27;;;;;;;-4.16;100.00;100084.13;5011910;28;20205;-75
2023/02/07 05:40:29;;;;;;;21.50;13.50;;;;;;;-4.17;100.00;100083.22;5010672;28;20215;-76
2023/02/07 05:42:56;;;;;;;22.10;14.57;;;;;;;-4.20;100.00;100092.63;5011696;28;20207;-76
2023/02/07 05:45:22;;;;;;;22.83;12.60;;;;;;;-4.23;100.00;100093.44;5011859;28;20230;-76
2023/02/07 05:47:49;;;;;;;20.73;13.93;;;;;;;-4.30;100.00;100086.41;5011887;28;20232;-76
2023/02/07 05:50:16;;;;;;;20.77;14.03;;;;;;;-4.30;100.00;100080.38;5011327;28;20237;-76
2023/02/07 05:52:44;;;;;;;19.07;13.67;;;;;;;-4.29;100.00;100092.47;5011733;28;20219;-76
2023/02/07 05:55:11;;;;;;;19.23;13.17;;;;;;;-4.32;100.00;100097.53;5011557;28;20725;-76
2023/02/07 05:57:39;;;;;;;21.63;14.00;;;;;;;-4.34;100.00;100094.06;5011494;28;20216;-76
2023/02/07 06:00:07;;;;;;;20.93;12.53;;;;;;;-4.40;100.00;100096.53;5011569;28;20206;-76
2023/02/07 06:02:34;;;;;;;22.30;13.53;;;;;;;-4.42;100.00;100093.03;5011760;28;20603;-76
2023/02/07 06:05:00;;;;;;;20.17;13.43;;;;;;;-4.42;100.00;100095.59;5011422;28;20237;-76
2023/02/07 06:07:27;;;;;;;19.77;13.33;;;;;;;-4.44;100.00;100089.53;5011521;28;20218;-75
2023/02/07 06:09:54;;;;;;;21.50;13.20;;;;;;;-4.50;100.00;100086.84;5011193;28;20208;-76
2023/02/07 06:12:21;;;;;;;18.93;12.50;;;;;;;-4.60;100.00;100074.56;5011520;28;20210;-76
2023/02/07 06:14:47;;;;;;;21.13;13.40;;;;;;;-4.64;100.00;100067.63;5011806;28;20236;-75
2023/02/07 06:17:14;;;;;;;22.60;13.07;;;;;;;-4.64;100.00;100070.22;5011629;28;20212;-76
2023/02/07 06:19:40;;;;;;;25.10;15.00;;;;;;;-4.63;100.00;100069.38;5011107;28;20212;-76
2023/02/07 06:22:07;;;;;;;23.67;14.47;;;;;;;-4.59;100.00;100063.44;5011367;28;20217;-76
2023/02/07 06:24:33;;;;;;;25.10;15.53;;;;;;;-4.42;100.00;100065.50;5011431;28;20230;-76
2023/02/07 06:27:01;;;;;;;25.90;16.00;;;;;;;-4.43;100.00;100062.91;5011631;28;20210;-75
2023/02/07 06:29:28;;;;;;;26.90;15.50;;;;;;;-4.39;100.00;100080.19;5011424;28;20210;-75
2023/02/07 06:31:54;;;;;;;26.93;14.43;;;;;;;-4.50;100.00;100086.84;5011132;28;20235;-75
2023/02/07 06:34:21;;;;;;;23.77;14.77;;;;;;;-4.57;100.00;100082.38;5011116;28;20317;-76
2023/02/07 06:36:47;;;;;;;23.73;14.60;;;;;;;-4.58;100.00;100083.25;5011182;28;20693;-76
2023/02/07 06:39:14;;;;;;;28.07;15.80;;;;;;;-4.61;100.00;100090.91;5010889;28;20234;-76
2023/02/07 06:41:40;;;;;;;23.33;14.33;;;;;;;-4.62;100.00;100095.19;5015211;28;20202;-76
2023/02/07 06:44:08;;;;;;;24.77;15.47;;;;;;;-4.57;100.00;100100.44;5030939;28;20225;-76
2023/02/07 06:46:35;;;;;;;24.70;15.73;;;;;;;-4.38;100.00;100100.88;5031096;28;20206;-76
2023/02/07 06:49:01;;;;;;;22.30;14.37;;;;;;;-4.26;100.00;100097.66;5030706;28;20647;-76
2023/02/07 06:51:28;;;;;;;21.03;13.57;;;;;;;-4.22;100.00;100099.47;5031374;28;20241;-76
2023/02/07 06:53:54;;;;;;;21.97;12.57;;;;;;;-4.16;100.00;100104.75;5034780;28;20239;-76
2023/02/07 06:56:21;;;;;;;21.87;13.60;;;;;;;-4.25;100.00;100105.44;5034809;28;20211;-76
2023/02/07 06:58:47;;;;;;;21.40;13.37;;;;;;;-4.24;100.00;100103.72;5034574;28;20326;-76
2023/02/07 07:01:18;;;;;;;19.90;13.33;;;;;;;-4.33;100.00;100103.56;5034580;28;20205;-75
2023/02/07 07:03:45;;;;;;;20.63;13.33;;;;;;;-4.35;100.00;100102.66;5034463;28;20324;-75
2023/02/07 07:06:12;;;;;;;18.37;12.33;;;;;;;-4.37;100.00;100115.53;5034392;28;20217;-76
2023/02/07 07:08:38;;;;;;;22.70;13.37;;;;;;;-4.33;100.00;100121.63;5034471;28;20215;-75
2023/02/07 07:11:05;;;;;;;20.50;13.43;;;;;;;-4.32;100.00;100113.03;5034217;28;20253;-76
2023/02/07 07:13:31;;;;;;;22.40;14.30;;;;;;;-4.26;100.00;100111.47;5034479;28;20230;-76
2023/02/07 07:15:58;;;;;;;23.50;13.57;;;;;;;-4.21;100.00;100116.72;5034413;28;20280;-76
2023/02/07 07:18:26;;;;;;;18.97;12.93;;;;;;;-4.19;100.00;100115.91;5034274;28;20212;-75
2023/02/07 07:20:52;;;;;;;17.60;11.77;;;;;;;-4.09;100.00;100116.94;5033776;28;20206;-76
2023/02/07 07:23:19;;;;;;;17.33;11.83;;;;;;;-4.03;100.00;100122.25;5034224;28;20589;-76
2023/02/07 07:25:46;;;;;;;17.53;11.57;;;;;;;-3.93;100.00;100125.03;5034067;28;20216;-76
2023/02/07 07:28:12;;;;;;;17.30;11.47;;;;;;;-3.91;100.00;100130.22;5034126;28;20301;-76
2023/02/07 07:30:39;;;;;;;18.50;11.50;;;;;;;-3.79;100.00;100133.03;5033593;28;20327;-76
2023/02/07 07:33:06;;;;;;;17.73;11.77;;;;;;;-3.67;100.00;100128.09;5033951;28;20217;-76
2023/02/07 07:35:33;;;;;;;15.37;9.67;;;;;;;-3.55;100.00;100129.19;5034089;28;20282;-76
2023/02/07 07:38:00;;;;;;;16.47;10.87;;;;;;;-3.54;100.00;100114.56;5033853;28;20256;-75
2023/02/07 07:40:26;;;;;;;17.50;11.50;;;;;;;-3.43;100.00;100113.03;5033710;28;20216;-77
2023/02/07 07:42:53;;;;;;;13.50;9.60;;;;;;;-3.38;100.00;100112.25;5033786;28;20222;-77
2023/02/07 07:45:20;;;;;;;13.53;9.77;;;;;;;-3.27;100.00;100102.09;5033740;28;20261;-76
2023/02/07 07:47:46;;;;;;;15.73;10.23;;;;;;;-3.19;100.00;100095.34;5033758;28;20617;-76
2023/02/07 07:50:13;;;;;;;14.47;9.93;;;;;;;-3.12;100.00;100104.94;5033259;28;20212;-76
2023/02/07 07:52:41;;;;;;;14.90;10.57;;;;;;;-3.01;100.00;100103.41;5034005;28;20230;-77
2023/02/07 07:55:08;;;;;;;17.80;12.07;;;;;;;-2.90;100.00;100101.81;5032921;28;20441;-76
2023/02/07 07:57:35;;;;;;;14.03;10.33;;;;;;;-2.79;100.00;100105.44;5033551;28;20215;-76
2023/02/07 08:00:02;;;;;;;14.63;10.13;;;;;;;-2.78;100.00;100108.06;5033206;28;20287;-76
2023/02/07 08:02:29;;;;;;;16.03;10.37;;;;;;;-2.77;100.00;100104.63;5033185;28;20208;-76
2023/02/07 08:04:55;;;;;;;16.23;10.67;;;;;;;-2.74;100.00;100114.16;5032653;28;20613;-77
2023/02/07 08:07:22;;;;;;;15.03;9.53;;;;;;;-2.76;100.00;100106.34;5033640;28;20206;-76
2023/02/07 08:09:50;;;;;;;13.63;9.40;;;;;;;-2.76;100.00;100113.25;5033212;28;20207;-76
2023/02/07 08:12:16;;;;;;;13.57;9.53;;;;;;;-2.70;100.00;100121.97;5033141;28;20236;-76
2023/02/07 08:14:43;;;;;;;14.00;9.77;;;;;;;-2.66;100.00;100122.88;5033232;28;20240;-75
2023/02/07 08:17:09;;;;;;;14.30;9.43;;;;;;;-2.57;100.00;100130.78;5033063;28;20682;-75
2023/02/07 08:19:37;;;;;;;13.00;9.83;;;;;;;-2.52;100.00;100134.31;5032743;28;20208;-76
2023/02/07 08:22:03;;;;;;;13.13;9.10;;;;;;;-2.48;99.77;100138.69;5031775;28;20305;-76
2023/02/07 08:24:30;;;;;;;11.73;8.90;;;;;;;-2.52;97.99;100136.91;5031353;28;20271;-76
2023/02/07 08:26:58;;;;;;;13.77;8.97;;;;;;;-2.41;97.84;100145.69;5031947;28;20211;-76
2023/02/07 08:29:24;;;;;;;13.50;9.77;;;;;;;-2.33;98.03;100155.28;5031843;28;20214;-76
2023/02/07 08:31:51;;;;;;;17.17;11.67;;;;;;;-2.28;96.67;100168.31;5023365;28;21011;-76
2023/02/07 08:34:22;;;;;;;13.47;9.20;;;;;;;-2.21;94.56;100162.38;5011047;28;20498;-76
2023/02/07 08:36:49;;;;;;;14.80;9.40;;;;;;;-2.14;93.46;100180.59;5012457;28;20215;-76
2023/02/07 08:39:15;;;;;;;15.03;9.13;;;;;;;-2.12;90.46;100171.13;5011785;28;20219;-76
2023/02/07 08:41:42;;;;;;;12.57;8.93;;;;;;;-2.13;91.83;100174.56;5011924;28;20212;-77
2023/02/07 08:44:10;;;;;;;14.10;10.30;;;;;;;-2.05;92.63;100174.66;5011688;28;20446;-77
2023/02/07 08:46:36;;;;;;;16.97;9.53;;;;;;;-2.06;92.14;100171.22;5013014;28;20209;-77
2023/02/07 08:49:03;;;;;;;13.23;8.27;;;;;;;-2.03;92.18;100167.78;5011859;28;20213;-76
2023/02/07 08:51:29;;;;;;;14.10;9.17;;;;;;;-1.98;94.44;100172.16;5011770;28;20234;-75
2023/02/07 08:53:56;;;;;;;13.80;9.73;;;;;;;-1.88;93.96;100170.56;5012513;28;20232;-76
2023/02/07 08:56:23;;;;;;;13.23;9.27;;;;;;;-1.87;94.65;100168.00;5012667;28;20623;-77
2023/02/07 08:58:49;;;;;;;14.53;9.57;;;;;;;-1.79;95.37;100165.50;5012273;28;20219;-76
2023/02/07 09:01:17;;;;;;;14.88;10.80;;;;;;;-1.79;94.83;100147.38;5012304;28;20799;-75
2023/02/07 09:03:43;;;;;;;14.40;10.20;;;;;;;-1.75;96.72;100146.53;5012361;28;20437;-76
2023/02/07 09:06:10;;;;;;;14.90;8.97;;;;;;;-1.67;95.65;100150.09;5012645;28;20210;-75
2023/02/07 09:08:37;;;;;;;14.67;9.50;;;;;;;-1.59;95.02;100141.53;5011838;28;20223;-76
2023/02/07 09:11:04;;;;;;;14.43;9.10;;;;;;;-1.54;94.56;100146.78;5011516;28;20236;-75
2023/02/07 09:13:30;;;;;;;16.73;9.67;;;;;;;-1.42;93.35;100146.91;5011997;28;20286;-75
2023/02/07 09:15:58;;;;;;;14.70;10.30;;;;;;;-1.44;92.44;100138.22;5012049;28;20701;-75
2023/02/07 09:18:26;;;;;;;13.97;8.87;;;;;;;-1.41;92.68;100143.44;5012222;28;20219;-75
2023/02/07 09:20:53;;;;;;;13.20;9.63;;;;;;;-1.35;92.97;100135.72;5011939;28;20267;-75
2023/02/07 09:23:19;;;;;;;12.87;8.57;;;;;;;-1.33;91.05;100136.59;5011971;28;20217;-76
2023/02/07 09:25:48;;;;;;;13.37;9.60;;;;;;;-1.31;90.41;100132.28;5012094;28;20222;-76
2023/02/07 09:28:14;;;;;;;11.93;9.50;;;;;;;-1.24;87.61;100131.50;5012154;28;20217;-76
2023/02/07 09:30:42;;;;;;;15.33;9.50;;;;;;;-1.27;85.67;100128.88;5011761;28;20216;-75
2023/02/07 09:33:09;;;;;;;13.27;9.33;;;;;;;-1.23;86.86;100134.09;5011821;28;20228;-75
2023/02/07 09:35:41;;;;;;;14.10;9.27;;;;;;;-1.16;85.16;100127.25;5011909;28;20217;-76
2023/02/07 09:38:12;;;;;;;13.67;9.80;;;;;;;-1.13;86.13;100135.94;5011789;28;20202;-74
2023/02/07 09:40:38;;;;;;;14.97;9.57;;;;;;;-1.04;85.07;100135.16;5011580;28;20211;-76
2023/02/07 09:43:18;;;;;;;13.83;9.63;;;;;;;-1.02;87.54;100144.69;5012054;28;20213;-76
2023/02/07 09:45:52;;;;;;;14.77;9.60;;;;;;;-0.97;88.15;100148.19;5011801;28;20215;-75
2023/02/07 09:48:23;;;;;;;13.43;9.90;;;;;;;-0.83;88.91;100161.25;5011809;28;20210;-74
2023/02/07 09:50:55;;;;;;;14.10;9.77;;;;;;;-0.81;88.23;100150.03;5011505;28;20213;-74
2023/02/07 09:53:26;;;;;;;15.10;9.73;;;;;;;-0.83;86.95;100145.69;5011638;28;20218;-74
2023/02/07 09:55:55;;;;;;;12.13;9.20;;;;;;;-0.76;84.55;100137.06;5011778;28;20217;-75
2023/02/07 09:58:31;;;;;;;13.47;9.90;;;;;;;-0.73;83.50;100131.94;5011798;28;20218;-75
2023/02/07 10:01:01;;;;;;;13.50;9.43;;;;;;;-0.66;81.56;100133.69;5011509;28;20250;-75
2023/02/07 10:03:28;;;;;;;16.87;9.50;;;;;;;-0.64;84.37;100132.84;5011012;28;20213;-75
2023/02/07 10:06:00;;;;;;;14.57;9.77;;;;;;;-0.67;85.53;100131.97;5011838;28;20600;-75
2023/02/07 10:08:27;;;;;;;13.33;9.73;;;;;;;-0.78;85.90;100142.28;5011135;28;20227;-75
2023/02/07 10:11:09;;;;;;;14.80;9.77;;;;;;;-0.65;84.14;100140.63;5011411;28;20617;-75
2023/02/07 10:13:53;;;;;;;13.17;9.33;;;;;;;-0.59;83.46;100151.94;5011394;28;20229;-74
2023/02/07 10:16:33;;;;;;;17.23;9.37;;;;;;;-0.48;81.77;100144.22;5011799;28;20213;-74
2023/02/07 10:19:11;;;;;;;12.63;9.47;;;;;;;-0.47;80.24;100135.56;5011252;28;20209;-75
2023/02/07 10:21:49;;;;;;;15.53;9.03;;;;;;;-0.46;80.36;100140.78;5011616;28;20209;-76
2023/02/07 10:24:49;;;;;;;13.43;9.80;;;;;;;-0.33;82.13;100154.72;5011035;28;20238;-75
2023/02/07 10:27:29;;;;;;;13.67;9.53;;;;;;;-0.25;81.17;100153.00;5013244;28;20209;-75
2023/02/07 10:30:01;;;;;;;14.67;10.37;;;;;;;-0.30;79.47;100139.13;5015134;28;20216;-76
2023/02/07 10:32:32;;;;;;;15.13;10.07;;;;;;;-0.24;78.94;100128.75;5015228;28;20233;-75
2023/02/07 10:35:02;;;;;;;14.33;9.13;;;;;;;-0.22;80.92;100147.81;5015292;28;20251;-76
2023/02/07 10:37:37;;;;;;;13.37;9.80;;;;;;;-0.17;84.04;100152.19;5015232;28;20213;-76
2023/02/07 10:40:07;;;;;;;12.97;9.77;;;;;;;-0.10;84.35;100154.81;5014753;28;20215;-75
2023/02/07 10:42:37;;;;;;;14.63;10.23;;;;;;;-0.03;83.61;100167.00;5015364;28;20209;-75
2023/02/07 10:45:04;;;;;;;14.70;9.63;;;;;;;-0.01;83.60;100154.88;5015072;28;20232;-76
2023/02/07 10:47:36;;;;;;;13.10;9.93;;;;;;;0.06;83.82;100167.03;5015166;28;20216;-75
2023/02/07 10:50:09;;;;;;;15.03;10.03;;;;;;;0.14;80.09;100147.13;5014867;28;20219;-74
2023/02/07 10:52:41;;;;;;;14.17;9.50;;;;;;;0.11;79.54;100138.44;5014843;28;20721;-76
2023/02/07 10:55:10;;;;;;;12.93;9.47;;;;;;;0.20;82.21;100154.09;5014931;28;20335;-75
2023/02/07 10:57:37;;;;;;;15.80;10.57;;;;;;;0.32;82.10;100160.19;5014762;28;20219;-73
2023/02/07 11:00:09;;;;;;;15.43;10.13;;;;;;;0.47;79.80;100138.56;5014420;28;20213;-76
2023/02/07 11:02:50;;;;;;;13.60;9.70;;;;;;;0.55;82.92;100157.69;5014819;28;20214;-75
2023/02/07 11:05:50;;;;;;;13.33;10.17;;;;;;;0.60;82.47;100154.22;5052040;23;20574;-79
2023/02/07 11:08:22;;;;;;;15.40;9.97;;;;;;;0.51;78.17;100130.78;5042918;28;20305;-78
2023/02/07 11:10:51;;;;;;;12.53;9.13;;;;;;;0.42;77.97;100135.09;5053909;28;20327;-78
2023/02/07 11:13:19;;;;;;;13.90;10.10;;;;;;;0.63;80.03;100146.41;5053965;28;20229;-78
2023/02/07 11:15:50;;;;;;;13.13;9.20;;;;;;;0.70;75.25;100127.38;5072132;28;20247;-77